Pasman, Argentina
Current Conditions -  °F | °C
As of 10:00 AM on Sunday 23 Nov 2014 (Local Time) from SAZM Reporting Station
Clear Clear  
Wind Chill: 75°   Ceiling: Unl
Heat Index: 75°   Visibility: 6mi
Dew Point: 57°   Wind: 21mph
Humidity: 53%   Direction: 320°NW
Pressure: 29.74"   Gusts: NA
Location:  37.23°S, 62.17°W
Report Text: SAZM 231300Z 32018KT CAVOK 24/14 Q1007
Loading
Personal Weather Stations






























Interactive Weather Map New forecast layout! Learn more

10-Day Weather Forecast

Advertisements
Track Severe Weather on mobile